sensor_id;sensor_type;location;lat;lon;timestamp;P1;durP1;ratioP1;P2;durP2;ratioP2
4833;SDS011;12895;51.064;7.028;2024-03-02T00:02:21;4.17;;;2.63;;
4833;SDS011;12895;51.064;7.028;2024-03-02T00:05:11;3.33;;;2.30;;
4833;SDS011;12895;51.064;7.028;2024-03-02T00:07:59;2.47;;;2.27;;
4833;SDS011;12895;51.064;7.028;2024-03-02T00:10:47;2.70;;;2.50;;
4833;SDS011;12895;51.064;7.028;2024-03-02T00:13:33;2.10;;;2.00;;
4833;SDS011;12895;51.064;7.028;2024-03-02T00:16:21;2.93;;;2.57;;
4833;SDS011;12895;51.064;7.028;2024-03-02T00:19:09;2.67;;;2.10;;
4833;SDS011;12895;51.064;7.028;2024-03-02T00:21:57;2.57;;;2.37;;
4833;SDS011;12895;51.064;7.028;2024-03-02T00:24:48;2.20;;;2.10;;
4833;SDS011;12895;51.064;7.028;2024-03-02T00:27:35;2.70;;;2.50;;
4833;SDS011;12895;51.064;7.028;2024-03-02T00:30:33;2.20;;;1.93;;
4833;SDS011;12895;51.064;7.028;2024-03-02T00:33:39;2.60;;;2.00;;
4833;SDS011;12895;51.064;7.028;2024-03-02T00:36:28;2.20;;;2.00;;
4833;SDS011;12895;51.064;7.028;2024-03-02T00:39:17;2.50;;;2.00;;
4833;SDS011;12895;51.064;7.028;2024-03-02T00:42:05;3.10;;;1.90;;
4833;SDS011;12895;51.064;7.028;2024-03-02T00:44:52;3.53;;;2.33;;
4833;SDS011;12895;51.064;7.028;2024-03-02T00:47:39;1.90;;;1.73;;
4833;SDS011;12895;51.064;7.028;2024-03-02T00:50:26;1.83;;;1.73;;
4833;SDS011;12895;51.064;7.028;2024-03-02T00:53:13;2.13;;;2.00;;
4833;SDS011;12895;51.064;7.028;2024-03-02T00:56:02;2.07;;;1.93;;
4833;SDS011;12895;51.064;7.028;2024-03-02T00:58:50;2.10;;;1.90;;
4833;SDS011;12895;51.064;7.028;2024-03-02T01:01:37;2.13;;;1.93;;
4833;SDS011;12895;51.064;7.028;2024-03-02T01:04:24;2.10;;;1.90;;
4833;SDS011;12895;51.064;7.028;2024-03-02T01:07:11;2.13;;;2.03;;
4833;SDS011;12895;51.064;7.028;2024-03-02T01:09:58;2.37;;;1.83;;
4833;SDS011;12895;51.064;7.028;2024-03-02T01:12:46;1.83;;;1.73;;
4833;SDS011;12895;51.064;7.028;2024-03-02T01:15:33;3.00;;;2.17;;
4833;SDS011;12895;51.064;7.028;2024-03-02T01:18:20;2.07;;;1.70;;
4833;SDS011;12895;51.064;7.028;2024-03-02T01:21:09;2.17;;;1.90;;
4833;SDS011;12895;51.064;7.028;2024-03-02T01:23:56;2.13;;;1.63;;
4833;SDS011;12895;51.064;7.028;2024-03-02T01:26:43;2.00;;;1.90;;
4833;SDS011;12895;51.064;7.028;2024-03-02T01:29:31;2.00;;;1.80;;
4833;SDS011;12895;51.064;7.028;2024-03-02T01:32:18;1.60;;;1.50;;
4833;SDS011;12895;51.064;7.028;2024-03-02T01:35:05;2.10;;;1.80;;
4833;SDS011;12895;51.064;7.028;2024-03-02T01:37:52;1.87;;;1.77;;
4833;SDS011;12895;51.064;7.028;2024-03-02T01:40:39;1.87;;;1.67;;
4833;SDS011;12895;51.064;7.028;2024-03-02T01:43:27;1.70;;;1.60;;
4833;SDS011;12895;51.064;7.028;2024-03-02T01:46:15;2.50;;;1.70;;
4833;SDS011;12895;51.064;7.028;2024-03-02T01:49:02;2.10;;;1.70;;
4833;SDS011;12895;51.064;7.028;2024-03-02T01:51:50;2.00;;;1.67;;
4833;SDS011;12895;51.064;7.028;2024-03-02T01:54:37;2.03;;;1.60;;
4833;SDS011;12895;51.064;7.028;2024-03-02T01:57:24;1.87;;;1.50;;
4833;SDS011;12895;51.064;7.028;2024-03-02T02:00:11;1.77;;;1.53;;
4833;SDS011;12895;51.064;7.028;2024-03-02T02:03:00;1.93;;;1.67;;
4833;SDS011;12895;51.064;7.028;2024-03-02T02:05:47;1.90;;;1.80;;
4833;SDS011;12895;51.064;7.028;2024-03-02T02:08:34;2.10;;;1.93;;
4833;SDS011;12895;51.064;7.028;2024-03-02T02:11:23;1.93;;;1.70;;
4833;SDS011;12895;51.064;7.028;2024-03-02T02:14:11;2.03;;;1.57;;
4833;SDS011;12895;51.064;7.028;2024-03-02T02:16:58;1.73;;;1.57;;
4833;SDS011;12895;51.064;7.028;2024-03-02T02:19:46;2.80;;;1.50;;
4833;SDS011;12895;51.064;7.028;2024-03-02T02:22:35;2.17;;;1.90;;
4833;SDS011;12895;51.064;7.028;2024-03-02T02:25:22;2.17;;;1.57;;
4833;SDS011;12895;51.064;7.028;2024-03-02T02:28:09;1.93;;;1.80;;
4833;SDS011;12895;51.064;7.028;2024-03-02T02:30:56;3.40;;;1.90;;
4833;SDS011;12895;51.064;7.028;2024-03-02T02:33:43;2.20;;;1.40;;
4833;SDS011;12895;51.064;7.028;2024-03-02T02:36:30;1.70;;;1.60;;
4833;SDS011;12895;51.064;7.028;2024-03-02T02:39:20;2.03;;;1.63;;
4833;SDS011;12895;51.064;7.028;2024-03-02T02:42:08;6.40;;;1.73;;
4833;SDS011;12895;51.064;7.028;2024-03-02T02:44:55;4.43;;;1.60;;
4833;SDS011;12895;51.064;7.028;2024-03-02T02:47:42;2.10;;;1.70;;
4833;SDS011;12895;51.064;7.028;2024-03-02T02:50:30;2.00;;;1.90;;
4833;SDS011;12895;51.064;7.028;2024-03-02T02:53:17;1.90;;;1.63;;
4833;SDS011;12895;51.064;7.028;2024-03-02T02:56:06;1.67;;;1.57;;
4833;SDS011;12895;51.064;7.028;2024-03-02T02:58:53;2.20;;;1.93;;
4833;SDS011;12895;51.064;7.028;2024-03-02T03:01:40;3.13;;;2.00;;
4833;SDS011;12895;51.064;7.028;2024-03-02T03:04:27;3.27;;;2.30;;
4833;SDS011;12895;51.064;7.028;2024-03-02T03:07:14;3.67;;;1.73;;
4833;SDS011;12895;51.064;7.028;2024-03-02T03:10:01;1.90;;;1.80;;
4833;SDS011;12895;51.064;7.028;2024-03-02T03:12:50;2.37;;;2.07;;
4833;SDS011;12895;51.064;7.028;2024-03-02T03:15:37;2.03;;;1.60;;
4833;SDS011;12895;51.064;7.028;2024-03-02T03:18:24;2.50;;;1.73;;
4833;SDS011;12895;51.064;7.028;2024-03-02T03:21:11;1.83;;;1.73;;
4833;SDS011;12895;51.064;7.028;2024-03-02T03:23:58;2.10;;;1.67;;
4833;SDS011;12895;51.064;7.028;2024-03-02T03:26:45;2.60;;;1.77;;
4833;SDS011;12895;51.064;7.028;2024-03-02T03:29:34;1.97;;;1.53;;
4833;SDS011;12895;51.064;7.028;2024-03-02T03:32:22;1.70;;;1.50;;
4833;SDS011;12895;51.064;7.028;2024-03-02T03:35:10;3.87;;;1.70;;
4833;SDS011;12895;51.064;7.028;2024-03-02T03:37:58;3.20;;;1.57;;
4833;SDS011;12895;51.064;7.028;2024-03-02T03:40:45;1.77;;;1.50;;
4833;SDS011;12895;51.064;7.028;2024-03-02T03:43:33;2.27;;;1.37;;
4833;SDS011;12895;51.064;7.028;2024-03-02T03:46:21;1.77;;;1.67;;
4833;SDS011;12895;51.064;7.028;2024-03-02T03:49:08;1.90;;;1.47;;
4833;SDS011;12895;51.064;7.028;2024-03-02T03:51:55;3.20;;;1.53;;
4833;SDS011;12895;51.064;7.028;2024-03-02T03:54:42;1.83;;;1.57;;
4833;SDS011;12895;51.064;7.028;2024-03-02T03:57:30;1.77;;;1.67;;
4833;SDS011;12895;51.064;7.028;2024-03-02T04:00:17;2.13;;;1.70;;
4833;SDS011;12895;51.064;7.028;2024-03-02T04:03:06;1.70;;;1.60;;
4833;SDS011;12895;51.064;7.028;2024-03-02T04:05:53;3.73;;;1.80;;
4833;SDS011;12895;51.064;7.028;2024-03-02T04:08:41;2.23;;;1.53;;
4833;SDS011;12895;51.064;7.028;2024-03-02T04:11:28;1.70;;;1.40;;
4833;SDS011;12895;51.064;7.028;2024-03-02T04:14:16;3.57;;;1.60;;
4833;SDS011;12895;51.064;7.028;2024-03-02T04:17:03;1.93;;;1.50;;
4833;SDS011;12895;51.064;7.028;2024-03-02T04:19:51;2.30;;;1.40;;
4833;SDS011;12895;51.064;7.028;2024-03-02T04:22:38;3.13;;;1.87;;
4833;SDS011;12895;51.064;7.028;2024-03-02T04:25:25;2.30;;;1.63;;
4833;SDS011;12895;51.064;7.028;2024-03-02T04:28:12;2.80;;;1.40;;
4833;SDS011;12895;51.064;7.028;2024-03-02T04:30:59;1.80;;;1.67;;
4833;SDS011;12895;51.064;7.028;2024-03-02T04:33:46;1.87;;;1.67;;
4833;SDS011;12895;51.064;7.028;2024-03-02T04:36:35;1.63;;;1.50;;
4833;SDS011;12895;51.064;7.028;2024-03-02T04:39:22;1.60;;;1.50;;
4833;SDS011;12895;51.064;7.028;2024-03-02T04:42:10;2.47;;;1.57;;
4833;SDS011;12895;51.064;7.028;2024-03-02T04:44:57;2.37;;;1.90;;
4833;SDS011;12895;51.064;7.028;2024-03-02T04:47:44;2.30;;;2.10;;
4833;SDS011;12895;51.064;7.028;2024-03-02T04:50:31;3.40;;;1.70;;
4833;SDS011;12895;51.064;7.028;2024-03-02T04:53:19;1.60;;;1.50;;
4833;SDS011;12895;51.064;7.028;2024-03-02T04:56:06;2.40;;;1.67;;
4833;SDS011;12895;51.064;7.028;2024-03-02T04:59:11;1.60;;;1.50;;
4833;SDS011;12895;51.064;7.028;2024-03-02T05:01:58;2.50;;;2.23;;
4833;SDS011;12895;51.064;7.028;2024-03-02T05:04:45;2.07;;;1.90;;
4833;SDS011;12895;51.064;7.028;2024-03-02T05:07:33;2.50;;;2.03;;
4833;SDS011;12895;51.064;7.028;2024-03-02T05:10:21;1.93;;;1.80;;
4833;SDS011;12895;51.064;7.028;2024-03-02T05:13:09;3.20;;;2.23;;
4833;SDS011;12895;51.064;7.028;2024-03-02T05:15:57;3.13;;;2.10;;
4833;SDS011;12895;51.064;7.028;2024-03-02T05:18:44;2.20;;;2.00;;
4833;SDS011;12895;51.064;7.028;2024-03-02T05:21:30;2.60;;;2.40;;
4833;SDS011;12895;51.064;7.028;2024-03-02T05:24:17;3.13;;;1.90;;
4833;SDS011;12895;51.064;7.028;2024-03-02T05:27:06;3.37;;;2.00;;
4833;SDS011;12895;51.064;7.028;2024-03-02T05:29:53;3.30;;;2.40;;
4833;SDS011;12895;51.064;7.028;2024-03-02T05:32:40;4.33;;;2.40;;
4833;SDS011;12895;51.064;7.028;2024-03-02T05:35:27;2.47;;;2.00;;
4833;SDS011;12895;51.064;7.028;2024-03-02T05:38:14;4.70;;;2.47;;
4833;SDS011;12895;51.064;7.028;2024-03-02T05:41:01;3.17;;;2.93;;
4833;SDS011;12895;51.064;7.028;2024-03-02T05:43:50;3.50;;;2.77;;
4833;SDS011;12895;51.064;7.028;2024-03-02T05:46:37;3.60;;;3.10;;
4833;SDS011;12895;51.064;7.028;2024-03-02T05:49:24;3.17;;;2.87;;
4833;SDS011;12895;51.064;7.028;2024-03-02T05:52:11;4.27;;;3.73;;
4833;SDS011;12895;51.064;7.028;2024-03-02T05:54:58;3.90;;;3.37;;
4833;SDS011;12895;51.064;7.028;2024-03-02T05:57:45;6.23;;;3.30;;
4833;SDS011;12895;51.064;7.028;2024-03-02T06:00:45;3.23;;;2.90;;
4833;SDS011;12895;51.064;7.028;2024-03-02T06:03:32;3.70;;;3.40;;
4833;SDS011;12895;51.064;7.028;2024-03-02T06:06:19;3.57;;;3.23;;
4833;SDS011;12895;51.064;7.028;2024-03-02T06:09:07;3.60;;;3.30;;
4833;SDS011;12895;51.064;7.028;2024-03-02T06:11:54;3.33;;;3.03;;
4833;SDS011;12895;51.064;7.028;2024-03-02T06:14:41;3.63;;;3.10;;
4833;SDS011;12895;51.064;7.028;2024-03-02T06:17:31;4.80;;;3.20;;
4833;SDS011;12895;51.064;7.028;2024-03-02T06:20:18;3.83;;;3.30;;
4833;SDS011;12895;51.064;7.028;2024-03-02T06:23:05;3.40;;;3.03;;
4833;SDS011;12895;51.064;7.028;2024-03-02T06:25:52;3.67;;;3.37;;
4833;SDS011;12895;51.064;7.028;2024-03-02T06:28:40;3.30;;;3.00;;
4833;SDS011;12895;51.064;7.028;2024-03-02T06:31:28;3.63;;;3.17;;
4833;SDS011;12895;51.064;7.028;2024-03-02T06:34:17;2.97;;;2.77;;
4833;SDS011;12895;51.064;7.028;2024-03-02T06:37:04;3.37;;;3.10;;
4833;SDS011;12895;51.064;7.028;2024-03-02T06:39:51;3.60;;;3.30;;
4833;SDS011;12895;51.064;7.028;2024-03-02T06:42:38;3.73;;;3.33;;
4833;SDS011;12895;51.064;7.028;2024-03-02T06:45:25;5.50;;;4.07;;
4833;SDS011;12895;51.064;7.028;2024-03-02T06:48:12;3.70;;;3.40;;
4833;SDS011;12895;51.064;7.028;2024-03-02T06:51:02;3.43;;;3.13;;
4833;SDS011;12895;51.064;7.028;2024-03-02T06:53:49;3.50;;;3.20;;
4833;SDS011;12895;51.064;7.028;2024-03-02T06:56:36;4.40;;;4.00;;
4833;SDS011;12895;51.064;7.028;2024-03-02T06:59:24;3.43;;;3.13;;
4833;SDS011;12895;51.064;7.028;2024-03-02T07:02:11;3.13;;;2.83;;
4833;SDS011;12895;51.064;7.028;2024-03-02T07:04:59;3.40;;;3.10;;
4833;SDS011;12895;51.064;7.028;2024-03-02T07:07:47;4.10;;;3.70;;
4833;SDS011;12895;51.064;7.028;2024-03-02T07:10:34;3.40;;;2.80;;
4833;SDS011;12895;51.064;7.028;2024-03-02T07:13:21;3.10;;;2.80;;
4833;SDS011;12895;51.064;7.028;2024-03-02T07:16:08;3.53;;;3.20;;
4833;SDS011;12895;51.064;7.028;2024-03-02T07:19:15;3.10;;;2.90;;
4833;SDS011;12895;51.064;7.028;2024-03-02T07:22:05;3.20;;;2.90;;
4833;SDS011;12895;51.064;7.028;2024-03-02T07:24:54;4.67;;;2.77;;
4833;SDS011;12895;51.064;7.028;2024-03-02T07:27:41;4.30;;;2.60;;
4833;SDS011;12895;51.064;7.028;2024-03-02T07:30:29;3.03;;;2.80;;
4833;SDS011;12895;51.064;7.028;2024-03-02T07:33:16;4.03;;;3.03;;
4833;SDS011;12895;51.064;7.028;2024-03-02T07:36:04;3.40;;;2.60;;
4833;SDS011;12895;51.064;7.028;2024-03-02T07:38:51;3.47;;;3.03;;
4833;SDS011;12895;51.064;7.028;2024-03-02T07:41:41;2.60;;;2.40;;
4833;SDS011;12895;51.064;7.028;2024-03-02T07:44:29;3.17;;;2.47;;
4833;SDS011;12895;51.064;7.028;2024-03-02T07:47:16;3.33;;;3.00;;
4833;SDS011;12895;51.064;7.028;2024-03-02T07:50:03;3.20;;;2.50;;
4833;SDS011;12895;51.064;7.028;2024-03-02T07:52:52;2.90;;;2.70;;
4833;SDS011;12895;51.064;7.028;2024-03-02T07:55:39;3.43;;;3.13;;
4833;SDS011;12895;51.064;7.028;2024-03-02T07:58:28;3.23;;;2.93;;
4833;SDS011;12895;51.064;7.028;2024-03-02T08:01:16;4.57;;;2.83;;
4833;SDS011;12895;51.064;7.028;2024-03-02T08:04:03;3.53;;;2.90;;
4833;SDS011;12895;51.064;7.028;2024-03-02T08:06:51;5.03;;;2.73;;
4833;SDS011;12895;51.064;7.028;2024-03-02T08:09:38;3.30;;;2.40;;
4833;SDS011;12895;51.064;7.028;2024-03-02T08:12:25;2.80;;;2.60;;
4833;SDS011;12895;51.064;7.028;2024-03-02T08:15:13;3.03;;;2.77;;
4833;SDS011;12895;51.064;7.028;2024-03-02T08:18:08;3.10;;;2.87;;
4833;SDS011;12895;51.064;7.028;2024-03-02T08:20:55;3.70;;;2.70;;
4833;SDS011;12895;51.064;7.028;2024-03-02T08:23:42;2.87;;;2.47;;
4833;SDS011;12895;51.064;7.028;2024-03-02T08:26:32;4.00;;;2.60;;
4833;SDS011;12895;51.064;7.028;2024-03-02T08:29:22;3.37;;;2.43;;
4833;SDS011;12895;51.064;7.028;2024-03-02T08:35:15;3.30;;;2.43;;
4833;SDS011;12895;51.064;7.028;2024-03-02T08:38:10;2.70;;;2.50;;
4833;SDS011;12895;51.064;7.028;2024-03-02T08:40:59;2.47;;;2.27;;
4833;SDS011;12895;51.064;7.028;2024-03-02T08:43:53;2.67;;;2.47;;
4833;SDS011;12895;51.064;7.028;2024-03-02T08:46:59;2.97;;;2.37;;
4833;SDS011;12895;51.064;7.028;2024-03-02T08:49:51;2.57;;;2.13;;
4833;SDS011;12895;51.064;7.028;2024-03-02T08:52:38;2.97;;;2.30;;
4833;SDS011;12895;51.064;7.028;2024-03-02T08:55:32;4.33;;;2.47;;
4833;SDS011;12895;51.064;7.028;2024-03-02T08:58:22;2.47;;;2.10;;
4833;SDS011;12895;51.064;7.028;2024-03-02T09:01:13;2.90;;;2.30;;
4833;SDS011;12895;51.064;7.028;2024-03-02T09:04:05;2.30;;;2.10;;
4833;SDS011;12895;51.064;7.028;2024-03-02T09:06:59;2.37;;;1.87;;
4833;SDS011;12895;51.064;7.028;2024-03-02T09:09:52;1.73;;;1.63;;
4833;SDS011;12895;51.064;7.028;2024-03-02T09:12:44;2.50;;;2.30;;
4833;SDS011;12895;51.064;7.028;2024-03-02T09:15:44;2.27;;;1.77;;
4833;SDS011;12895;51.064;7.028;2024-03-02T09:18:34;2.10;;;1.90;;
4833;SDS011;12895;51.064;7.028;2024-03-02T09:21:32;4.17;;;2.97;;
4833;SDS011;12895;51.064;7.028;2024-03-02T09:24:31;2.87;;;2.20;;
4833;SDS011;12895;51.064;7.028;2024-03-02T09:27:22;2.70;;;1.93;;
4833;SDS011;12895;51.064;7.028;2024-03-02T09:30:10;3.57;;;2.60;;
4833;SDS011;12895;51.064;7.028;2024-03-02T09:32:59;2.83;;;2.10;;
4833;SDS011;12895;51.064;7.028;2024-03-02T09:35:46;2.77;;;2.27;;
4833;SDS011;12895;51.064;7.028;2024-03-02T09:38:34;3.40;;;2.00;;
4833;SDS011;12895;51.064;7.028;2024-03-02T09:41:22;2.17;;;1.97;;
4833;SDS011;12895;51.064;7.028;2024-03-02T09:44:10;4.30;;;2.13;;
4833;SDS011;12895;51.064;7.028;2024-03-02T09:46:57;4.07;;;2.33;;
4833;SDS011;12895;51.064;7.028;2024-03-02T09:49:44;2.20;;;1.90;;
4833;SDS011;12895;51.064;7.028;2024-03-02T09:52:31;2.67;;;1.80;;
4833;SDS011;12895;51.064;7.028;2024-03-02T09:55:19;2.33;;;1.77;;
4833;SDS011;12895;51.064;7.028;2024-03-02T09:58:08;2.73;;;1.80;;
4833;SDS011;12895;51.064;7.028;2024-03-02T10:00:55;3.37;;;1.67;;
4833;SDS011;12895;51.064;7.028;2024-03-02T10:03:43;3.67;;;1.50;;
4833;SDS011;12895;51.064;7.028;2024-03-02T10:06:31;1.43;;;1.33;;
4833;SDS011;12895;51.064;7.028;2024-03-02T10:09:26;1.87;;;1.77;;
4833;SDS011;12895;51.064;7.028;2024-03-02T10:12:15;2.53;;;2.07;;
4833;SDS011;12895;51.064;7.028;2024-03-02T10:15:05;2.50;;;2.27;;
4833;SDS011;12895;51.064;7.028;2024-03-02T10:17:53;2.47;;;1.90;;
4833;SDS011;12895;51.064;7.028;2024-03-02T10:20:40;2.43;;;2.00;;
4833;SDS011;12895;51.064;7.028;2024-03-02T10:23:27;2.07;;;1.97;;
4833;SDS011;12895;51.064;7.028;2024-03-02T10:26:16;3.07;;;2.10;;
4833;SDS011;12895;51.064;7.028;2024-03-02T10:29:04;1.93;;;1.80;;
4833;SDS011;12895;51.064;7.028;2024-03-02T10:31:52;3.47;;;1.90;;
4833;SDS011;12895;51.064;7.028;2024-03-02T10:34:39;2.20;;;2.00;;
4833;SDS011;12895;51.064;7.028;2024-03-02T10:37:27;2.17;;;1.50;;
4833;SDS011;12895;51.064;7.028;2024-03-02T10:40:15;2.90;;;1.80;;
4833;SDS011;12895;51.064;7.028;2024-03-02T10:43:02;1.87;;;1.67;;
4833;SDS011;12895;51.064;7.028;2024-03-02T10:45:51;2.10;;;1.90;;
4833;SDS011;12895;51.064;7.028;2024-03-02T10:48:40;2.43;;;1.60;;
4833;SDS011;12895;51.064;7.028;2024-03-02T10:51:29;2.77;;;2.00;;
4833;SDS011;12895;51.064;7.028;2024-03-02T10:54:17;1.67;;;1.57;;
4833;SDS011;12895;51.064;7.028;2024-03-02T10:57:11;6.60;;;2.07;;
4833;SDS011;12895;51.064;7.028;2024-03-02T11:00:04;2.50;;;1.87;;
4833;SDS011;12895;51.064;7.028;2024-03-02T11:03:02;1.90;;;1.80;;
4833;SDS011;12895;51.064;7.028;2024-03-02T11:05:53;1.53;;;1.40;;
4833;SDS011;12895;51.064;7.028;2024-03-02T11:08:40;2.43;;;1.50;;
4833;SDS011;12895;51.064;7.028;2024-03-02T11:11:30;4.00;;;1.70;;
4833;SDS011;12895;51.064;7.028;2024-03-02T11:14:21;1.73;;;1.50;;
4833;SDS011;12895;51.064;7.028;2024-03-02T11:17:13;3.10;;;1.50;;
4833;SDS011;12895;51.064;7.028;2024-03-02T11:20:02;2.10;;;1.47;;
4833;SDS011;12895;51.064;7.028;2024-03-02T11:22:52;2.10;;;1.40;;
4833;SDS011;12895;51.064;7.028;2024-03-02T11:25:39;2.30;;;1.97;;
4833;SDS011;12895;51.064;7.028;2024-03-02T11:28:34;2.63;;;2.00;;
4833;SDS011;12895;51.064;7.028;2024-03-02T11:34:46;1.67;;;1.57;;
4833;SDS011;12895;51.064;7.028;2024-03-02T11:37:35;1.30;;;1.20;;
4833;SDS011;12895;51.064;7.028;2024-03-02T11:40:23;2.97;;;1.80;;
4833;SDS011;12895;51.064;7.028;2024-03-02T11:43:11;1.77;;;1.50;;
4833;SDS011;12895;51.064;7.028;2024-03-02T11:45:59;3.93;;;1.53;;
4833;SDS011;12895;51.064;7.028;2024-03-02T11:48:49;1.70;;;1.50;;
4833;SDS011;12895;51.064;7.028;2024-03-02T11:51:36;2.23;;;1.47;;
4833;SDS011;12895;51.064;7.028;2024-03-02T11:54:37;1.90;;;1.70;;
4833;SDS011;12895;51.064;7.028;2024-03-02T11:57:27;1.30;;;1.10;;
4833;SDS011;12895;51.064;7.028;2024-03-02T12:00:17;1.73;;;1.30;;
4833;SDS011;12895;51.064;7.028;2024-03-02T12:03:04;1.30;;;1.20;;
4833;SDS011;12895;51.064;7.028;2024-03-02T12:05:53;2.07;;;1.87;;
4833;SDS011;12895;51.064;7.028;2024-03-02T12:08:41;1.40;;;1.30;;
4833;SDS011;12895;51.064;7.028;2024-03-02T12:11:28;1.40;;;1.30;;
4833;SDS011;12895;51.064;7.028;2024-03-02T12:14:17;1.17;;;1.07;;
4833;SDS011;12895;51.064;7.028;2024-03-02T12:17:04;4.63;;;1.43;;
4833;SDS011;12895;51.064;7.028;2024-03-02T12:19:51;1.30;;;1.10;;
4833;SDS011;12895;51.064;7.028;2024-03-02T12:22:39;1.47;;;1.10;;
4833;SDS011;12895;51.064;7.028;2024-03-02T12:25:26;1.40;;;1.30;;
4833;SDS011;12895;51.064;7.028;2024-03-02T12:28:13;1.17;;;1.07;;
4833;SDS011;12895;51.064;7.028;2024-03-02T12:31:02;1.53;;;1.23;;
4833;SDS011;12895;51.064;7.028;2024-03-02T12:33:49;1.40;;;1.23;;
4833;SDS011;12895;51.064;7.028;2024-03-02T12:36:37;2.13;;;1.40;;
4833;SDS011;12895;51.064;7.028;2024-03-02T12:39:25;1.87;;;1.73;;
4833;SDS011;12895;51.064;7.028;2024-03-02T12:42:12;2.40;;;1.80;;
4833;SDS011;12895;51.064;7.028;2024-03-02T12:44:59;1.80;;;1.43;;
4833;SDS011;12895;51.064;7.028;2024-03-02T12:47:47;1.50;;;1.40;;
4833;SDS011;12895;51.064;7.028;2024-03-02T12:50:34;3.13;;;1.83;;
4833;SDS011;12895;51.064;7.028;2024-03-02T12:53:22;1.43;;;1.33;;
4833;SDS011;12895;51.064;7.028;2024-03-02T12:56:10;1.60;;;1.50;;
4833;SDS011;12895;51.064;7.028;2024-03-02T12:58:57;1.90;;;1.43;;
4833;SDS011;12895;51.064;7.028;2024-03-02T13:01:49;1.50;;;1.40;;
4833;SDS011;12895;51.064;7.028;2024-03-02T13:04:38;2.90;;;1.60;;
4833;SDS011;12895;51.064;7.028;2024-03-02T13:07:27;1.57;;;1.47;;
4833;SDS011;12895;51.064;7.028;2024-03-02T13:10:15;3.43;;;1.67;;
4833;SDS011;12895;51.064;7.028;2024-03-02T13:13:02;2.30;;;1.30;;
4833;SDS011;12895;51.064;7.028;2024-03-02T13:15:49;1.50;;;1.40;;
4833;SDS011;12895;51.064;7.028;2024-03-02T13:18:36;2.23;;;1.50;;
4833;SDS011;12895;51.064;7.028;2024-03-02T13:21:26;1.30;;;1.20;;
4833;SDS011;12895;51.064;7.028;2024-03-02T13:24:13;2.20;;;1.43;;
4833;SDS011;12895;51.064;7.028;2024-03-02T13:27:00;1.50;;;1.40;;
4833;SDS011;12895;51.064;7.028;2024-03-02T13:29:49;1.70;;;1.20;;
4833;SDS011;12895;51.064;7.028;2024-03-02T13:32:36;1.53;;;1.43;;
4833;SDS011;12895;51.064;7.028;2024-03-02T13:35:23;1.77;;;1.60;;
4833;SDS011;12895;51.064;7.028;2024-03-02T13:38:11;1.90;;;1.30;;
4833;SDS011;12895;51.064;7.028;2024-03-02T13:40:58;1.43;;;1.30;;
4833;SDS011;12895;51.064;7.028;2024-03-02T13:43:47;1.40;;;1.30;;
4833;SDS011;12895;51.064;7.028;2024-03-02T13:46:36;1.23;;;1.13;;
4833;SDS011;12895;51.064;7.028;2024-03-02T13:49:23;1.87;;;1.40;;
4833;SDS011;12895;51.064;7.028;2024-03-02T13:52:14;1.50;;;1.40;;
4833;SDS011;12895;51.064;7.028;2024-03-02T13:55:03;1.27;;;1.00;;
4833;SDS011;12895;51.064;7.028;2024-03-02T13:57:51;1.33;;;1.23;;
4833;SDS011;12895;51.064;7.028;2024-03-02T14:00:38;1.10;;;1.00;;
4833;SDS011;12895;51.064;7.028;2024-03-02T14:03:25;1.90;;;1.30;;
4833;SDS011;12895;51.064;7.028;2024-03-02T14:06:13;2.10;;;1.90;;
4833;SDS011;12895;51.064;7.028;2024-03-02T14:09:00;1.73;;;1.63;;
4833;SDS011;12895;51.064;7.028;2024-03-02T14:11:48;5.37;;;1.90;;
4833;SDS011;12895;51.064;7.028;2024-03-02T14:14:36;1.50;;;1.40;;
4833;SDS011;12895;51.064;7.028;2024-03-02T14:17:23;1.53;;;1.43;;
4833;SDS011;12895;51.064;7.028;2024-03-02T14:20:10;2.07;;;1.43;;
4833;SDS011;12895;51.064;7.028;2024-03-02T14:22:59;1.40;;;1.27;;
4833;SDS011;12895;51.064;7.028;2024-03-02T14:25:46;1.53;;;1.23;;
4833;SDS011;12895;51.064;7.028;2024-03-02T14:28:35;2.30;;;2.10;;
4833;SDS011;12895;51.064;7.028;2024-03-02T14:31:22;1.40;;;1.30;;
4833;SDS011;12895;51.064;7.028;2024-03-02T14:34:09;1.43;;;1.33;;
4833;SDS011;12895;51.064;7.028;2024-03-02T14:36:56;3.53;;;1.43;;
4833;SDS011;12895;51.064;7.028;2024-03-02T14:39:43;2.07;;;1.60;;
4833;SDS011;12895;51.064;7.028;2024-03-02T14:42:30;2.07;;;1.83;;
4833;SDS011;12895;51.064;7.028;2024-03-02T14:45:19;2.40;;;1.83;;
4833;SDS011;12895;51.064;7.028;2024-03-02T14:48:07;3.23;;;2.07;;
4833;SDS011;12895;51.064;7.028;2024-03-02T14:50:54;1.40;;;1.30;;
4833;SDS011;12895;51.064;7.028;2024-03-02T14:53:41;2.00;;;1.80;;
4833;SDS011;12895;51.064;7.028;2024-03-02T14:56:28;1.50;;;1.40;;
4833;SDS011;12895;51.064;7.028;2024-03-02T14:59:15;1.40;;;1.30;;
4833;SDS011;12895;51.064;7.028;2024-03-02T15:02:03;1.37;;;1.23;;
4833;SDS011;12895;51.064;7.028;2024-03-02T15:04:50;2.10;;;1.90;;
4833;SDS011;12895;51.064;7.028;2024-03-02T15:07:37;1.33;;;1.23;;
4833;SDS011;12895;51.064;7.028;2024-03-02T15:10:24;3.40;;;1.10;;
4833;SDS011;12895;51.064;7.028;2024-03-02T15:13:13;1.37;;;1.27;;
4833;SDS011;12895;51.064;7.028;2024-03-02T15:16:00;2.27;;;1.30;;
4833;SDS011;12895;51.064;7.028;2024-03-02T15:18:48;1.30;;;1.20;;
4833;SDS011;12895;51.064;7.028;2024-03-02T15:21:35;1.50;;;1.30;;
4833;SDS011;12895;51.064;7.028;2024-03-02T15:24:22;1.40;;;1.30;;
4833;SDS011;12895;51.064;7.028;2024-03-02T15:27:10;2.03;;;1.50;;
4833;SDS011;12895;51.064;7.028;2024-03-02T15:29:57;4.40;;;1.60;;
4833;SDS011;12895;51.064;7.028;2024-03-02T15:32:44;2.23;;;1.33;;
4833;SDS011;12895;51.064;7.028;2024-03-02T15:35:32;2.60;;;2.17;;
4833;SDS011;12895;51.064;7.028;2024-03-02T15:38:19;1.93;;;1.53;;
4833;SDS011;12895;51.064;7.028;2024-03-02T15:41:06;2.43;;;1.80;;
4833;SDS011;12895;51.064;7.028;2024-03-02T15:43:53;2.70;;;1.10;;
4833;SDS011;12895;51.064;7.028;2024-03-02T15:46:41;1.30;;;1.20;;
4833;SDS011;12895;51.064;7.028;2024-03-02T15:49:28;1.83;;;1.20;;
4833;SDS011;12895;51.064;7.028;2024-03-02T15:52:18;1.60;;;1.50;;
4833;SDS011;12895;51.064;7.028;2024-03-02T15:55:07;1.93;;;1.70;;
4833;SDS011;12895;51.064;7.028;2024-03-02T15:57:54;1.57;;;1.40;;
4833;SDS011;12895;51.064;7.028;2024-03-02T16:00:42;1.60;;;1.50;;
4833;SDS011;12895;51.064;7.028;2024-03-02T16:03:29;1.60;;;1.50;;
4833;SDS011;12895;51.064;7.028;2024-03-02T16:06:18;1.60;;;1.20;;
4833;SDS011;12895;51.064;7.028;2024-03-02T16:09:07;2.90;;;1.40;;
4833;SDS011;12895;51.064;7.028;2024-03-02T16:11:57;1.80;;;1.70;;
4833;SDS011;12895;51.064;7.028;2024-03-02T16:14:45;1.73;;;1.63;;
4833;SDS011;12895;51.064;7.028;2024-03-02T16:17:33;1.60;;;1.47;;
4833;SDS011;12895;51.064;7.028;2024-03-02T16:20:21;2.60;;;2.00;;
4833;SDS011;12895;51.064;7.028;2024-03-02T16:23:15;1.97;;;1.37;;
4833;SDS011;12895;51.064;7.028;2024-03-02T16:26:07;1.50;;;1.40;;
4833;SDS011;12895;51.064;7.028;2024-03-02T16:28:57;2.80;;;2.00;;
4833;SDS011;12895;51.064;7.028;2024-03-02T16:31:44;1.70;;;1.37;;
4833;SDS011;12895;51.064;7.028;2024-03-02T16:34:31;2.43;;;2.23;;
4833;SDS011;12895;51.064;7.028;2024-03-02T16:37:23;1.90;;;1.63;;
4833;SDS011;12895;51.064;7.028;2024-03-02T16:40:14;1.60;;;1.50;;
4833;SDS011;12895;51.064;7.028;2024-03-02T16:43:02;1.53;;;1.43;;
4833;SDS011;12895;51.064;7.028;2024-03-02T16:45:52;1.90;;;1.80;;
4833;SDS011;12895;51.064;7.028;2024-03-02T16:48:44;3.20;;;1.37;;
4833;SDS011;12895;51.064;7.028;2024-03-02T16:51:37;1.20;;;1.10;;
4833;SDS011;12895;51.064;7.028;2024-03-02T16:54:25;1.20;;;1.10;;
4833;SDS011;12895;51.064;7.028;2024-03-02T16:57:16;1.80;;;1.27;;
4833;SDS011;12895;51.064;7.028;2024-03-02T17:00:08;1.20;;;1.00;;
4833;SDS011;12895;51.064;7.028;2024-03-02T17:02:58;1.50;;;1.40;;
4833;SDS011;12895;51.064;7.028;2024-03-02T17:05:55;1.30;;;1.13;;
4833;SDS011;12895;51.064;7.028;2024-03-02T17:08:51;1.23;;;1.13;;
4833;SDS011;12895;51.064;7.028;2024-03-02T17:11:38;1.87;;;1.47;;
4833;SDS011;12895;51.064;7.028;2024-03-02T17:14:27;2.73;;;2.17;;
4833;SDS011;12895;51.064;7.028;2024-03-02T17:17:16;2.10;;;1.40;;